createdAt,value
2023-03-20T00:00:24.248Z,4.63
2023-03-20T00:10:25.785Z,4.88
2023-03-20T00:20:27.041Z,4.35
2023-03-20T00:30:28.634Z,4.13
2023-03-20T00:40:29.938Z,5.60
2023-03-20T00:50:31.269Z,4.50
2023-03-20T01:00:32.579Z,7.22
2023-03-20T01:10:33.835Z,5.22
2023-03-20T01:20:35.054Z,5.72
2023-03-20T01:30:36.373Z,7.05
2023-03-20T01:40:37.656Z,7.15
2023-03-20T01:50:38.915Z,6.88
2023-03-20T02:00:40.117Z,7.50
2023-03-20T02:10:41.408Z,7.28
2023-03-20T02:20:42.609Z,8.07
2023-03-20T02:30:44.194Z,8.40
2023-03-20T02:40:45.920Z,11.75
2023-03-20T02:50:47.232Z,8.18
2023-03-20T03:00:48.478Z,8.27
2023-03-20T03:10:49.677Z,11.18
2023-03-20T03:20:50.873Z,11.27
2023-03-20T03:30:53.631Z,13.80
2023-03-20T03:40:54.904Z,12.93
2023-03-20T03:50:56.206Z,13.43
2023-03-20T04:00:57.433Z,11.93
2023-03-20T04:10:58.866Z,13.23
2023-03-20T04:21:00.145Z,15.48
2023-03-20T04:31:02.072Z,14.98
2023-03-20T04:41:03.646Z,17.15
2023-03-20T04:51:04.889Z,15.57
2023-03-20T05:01:06.165Z,16.65
2023-03-20T05:11:08.199Z,17.05
2023-03-20T05:21:09.419Z,16.05
2023-03-20T05:31:11.202Z,20.45
2023-03-20T05:41:12.445Z,19.50
2023-03-20T05:51:13.744Z,17.73
2023-03-20T06:01:18.152Z,17.27
2023-03-20T06:11:19.485Z,20.48
2023-03-20T06:21:20.982Z,22.08
2023-03-20T06:31:22.533Z,22.80
2023-03-20T06:41:34.354Z,22.88
2023-03-20T06:51:37.224Z,24.02
2023-03-20T07:01:38.560Z,26.08
2023-03-20T07:11:40.408Z,24.05
2023-03-20T07:21:42.227Z,22.15
2023-03-20T07:31:43.548Z,23.90
2023-03-20T07:41:44.846Z,23.55
2023-03-20T07:51:46.533Z,20.67
2023-03-20T08:01:48.286Z,18.98
2023-03-20T08:11:49.786Z,21.38
2023-03-20T08:21:52.202Z,20.60
2023-03-20T08:31:53.501Z,20.40
2023-03-20T08:41:54.887Z,16.98
2023-03-20T08:51:56.098Z,15.77
2023-03-20T09:01:57.803Z,17.02
2023-03-20T09:22:37.129Z,11.93
2023-03-20T09:53:26.758Z,10.45
2023-03-20T10:03:28.076Z,12.13
2023-03-20T10:13:44.973Z,9.27
2023-03-20T10:34:36.494Z,17.23
2023-03-20T10:44:37.854Z,7.50
2023-03-20T11:04:48.196Z,11.82
2023-03-20T11:14:49.552Z,7.00
2023-03-20T11:24:50.828Z,6.13
2023-03-20T11:34:52.292Z,5.80
2023-03-20T11:45:00.310Z,3.42
2023-03-20T11:55:01.872Z,5.10
2023-03-20T12:05:03.102Z,3.83
2023-03-20T12:15:04.349Z,3.30
2023-03-20T12:25:05.584Z,6.00
2023-03-20T12:35:06.794Z,6.15
2023-03-20T12:45:09.289Z,6.22
2023-03-20T12:55:10.652Z,4.88
2023-03-20T13:05:11.976Z,5.00
2023-03-20T13:15:14.723Z,6.43
2023-03-20T13:25:16.148Z,4.82
2023-03-20T13:35:17.383Z,5.15
2023-03-20T13:45:18.764Z,5.28
2023-03-20T13:55:20.070Z,5.25
2023-03-20T14:05:22.358Z,6.10
2023-03-20T14:15:23.583Z,4.22
2023-03-20T14:25:24.855Z,6.18
2023-03-20T14:35:26.272Z,6.07
2023-03-20T14:45:28.630Z,5.65
2023-03-20T14:55:30.609Z,5.63
2023-03-20T15:05:31.919Z,4.32
2023-03-20T15:15:33.197Z,4.60
2023-03-20T15:25:34.666Z,5.75
2023-03-20T15:35:36.586Z,6.85
2023-03-20T15:45:38.938Z,5.82
2023-03-20T15:55:40.248Z,8.20
2023-03-20T16:05:41.448Z,6.95
2023-03-20T16:15:42.869Z,4.88
2023-03-20T16:25:44.100Z,5.50
2023-03-20T16:35:45.449Z,7.95
2023-03-20T16:45:47.213Z,7.53
2023-03-20T16:55:48.466Z,7.47
2023-03-20T17:05:49.696Z,5.05
2023-03-20T17:15:50.950Z,4.45
2023-03-20T17:25:52.468Z,6.25
2023-03-20T17:35:54.104Z,6.65
2023-03-20T17:45:55.554Z,7.63
2023-03-20T17:55:56.762Z,4.80
2023-03-20T18:05:57.986Z,6.88
2023-03-20T18:15:59.238Z,5.60
2023-03-20T18:26:01.441Z,4.97
2023-03-20T18:36:02.742Z,7.80
2023-03-20T18:46:04.046Z,4.95
2023-03-20T18:56:05.386Z,6.25
2023-03-20T19:06:09.384Z,4.68
2023-03-20T19:16:10.926Z,4.67
2023-03-20T19:26:12.147Z,6.50
2023-03-20T19:36:13.674Z,14.20
2023-03-20T19:46:28.403Z,8.25
2023-03-20T19:56:37.602Z,4.90
2023-03-20T20:06:39.854Z,5.25
2023-03-20T20:16:43.528Z,6.35
2023-03-20T20:26:53.726Z,9.80
2023-03-20T20:47:17.269Z,7.13
2023-03-20T20:57:18.593Z,8.52
2023-03-20T21:07:19.845Z,12.32
2023-03-20T21:17:21.080Z,8.80
2023-03-20T21:27:22.294Z,10.45
2023-03-20T21:38:25.755Z,29.88
2023-03-20T22:09:25.764Z,6.70
2023-03-20T22:29:53.347Z,9.05
2023-03-20T22:49:55.166Z,7.88
2023-03-20T22:59:56.412Z,8.45
2023-03-20T23:09:58.163Z,11.30
2023-03-20T23:20:10.870Z,8.68
2023-03-20T23:30:16.184Z,10.48
2023-03-20T23:40:17.462Z,12.07
2023-03-20T23:50:28.504Z,10.57
